createdAt,value
2022-09-14T00:02:21.665Z,16.97
2022-09-14T00:05:08.424Z,16.61
2022-09-14T00:07:54.571Z,16.30
2022-09-14T00:10:42.151Z,16.47
2022-09-14T00:13:28.249Z,16.07
2022-09-14T00:16:18.335Z,16.63
2022-09-14T00:19:06.787Z,17.14
2022-09-14T00:21:57.802Z,17.04
2022-09-14T00:24:43.720Z,17.23
2022-09-14T00:27:30.002Z,16.49
2022-09-14T00:30:15.794Z,16.58
2022-09-14T00:33:02.245Z,16.68
2022-09-14T00:35:48.233Z,17.13
2022-09-14T00:38:35.756Z,17.12
2022-09-14T00:41:27.332Z,16.89
2022-09-14T00:44:13.628Z,16.46
2022-09-14T00:47:01.551Z,16.82
2022-09-14T00:49:48.035Z,16.97
2022-09-14T00:52:35.552Z,17.03
2022-09-14T00:55:23.625Z,16.55
2022-09-14T00:58:09.534Z,16.10
2022-09-14T01:00:55.924Z,16.38
2022-09-14T01:03:42.214Z,16.99
2022-09-14T01:06:46.888Z,16.50
2022-09-14T01:09:41.732Z,16.67
2022-09-14T01:12:44.670Z,16.41
2022-09-14T01:15:52.316Z,16.18
2022-09-14T01:18:51.833Z,16.01
2022-09-14T01:21:38.715Z,16.70
2022-09-14T01:24:46.555Z,17.00
2022-09-14T01:27:43.989Z,16.77
2022-09-14T01:30:32.148Z,16.89
2022-09-14T01:33:27.218Z,16.67
2022-09-14T01:36:15.191Z,16.75
2022-09-14T01:39:01.847Z,16.74
2022-09-14T01:41:49.781Z,16.37
2022-09-14T01:44:37.619Z,16.41
2022-09-14T01:47:31.755Z,16.10
2022-09-14T01:50:22.539Z,16.22
2022-09-14T01:53:19.678Z,16.18
2022-09-14T01:56:26.809Z,16.07
2022-09-14T01:59:17.342Z,16.19
2022-09-14T02:02:07.733Z,16.13
2022-09-14T02:05:02.714Z,16.27
2022-09-14T02:07:48.660Z,16.13
2022-09-14T02:10:35.485Z,16.19
2022-09-14T02:13:22.191Z,16.62
2022-09-14T02:16:08.792Z,16.43
2022-09-14T02:18:55.108Z,15.69
2022-09-14T02:21:41.501Z,15.74
2022-09-14T02:24:28.358Z,16.05
2022-09-14T02:27:15.211Z,16.28
2022-09-14T02:30:00.920Z,16.12
2022-09-14T02:33:08.495Z,16.05
2022-09-14T02:35:56.081Z,15.71
2022-09-14T02:39:07.030Z,16.13
2022-09-14T02:42:11.578Z,15.36
2022-09-14T02:45:00.314Z,15.56
2022-09-14T02:48:04.151Z,16.23
2022-09-14T02:50:50.382Z,16.00
2022-09-14T02:53:53.772Z,15.60
2022-09-14T02:56:39.910Z,15.55
2022-09-14T02:59:25.688Z,15.64
2022-09-14T03:02:12.143Z,15.77
2022-09-14T03:04:58.577Z,16.04
2022-09-14T03:07:44.734Z,16.06
2022-09-14T03:10:31.719Z,16.00
2022-09-14T03:13:18.076Z,16.06
2022-09-14T03:16:07.510Z,15.12
2022-09-14T03:18:54.000Z,14.78
2022-09-14T03:21:40.274Z,15.25
2022-09-14T03:24:26.053Z,15.81
2022-09-14T03:27:11.843Z,15.86
2022-09-14T03:29:57.653Z,14.87
2022-09-14T03:32:43.514Z,14.77
2022-09-14T03:35:31.352Z,15.36
2022-09-14T03:38:17.087Z,15.88
2022-09-14T03:41:07.899Z,15.98
2022-09-14T03:43:53.908Z,16.09
2022-09-14T03:46:40.125Z,15.68
2022-09-14T03:49:25.708Z,15.99
2022-09-14T03:52:12.140Z,15.73
2022-09-14T03:54:58.019Z,16.13
2022-09-14T03:57:44.303Z,16.38
2022-09-14T04:00:30.083Z,16.10
2022-09-14T04:03:16.608Z,15.85
2022-09-14T04:06:05.403Z,16.00
2022-09-14T04:08:51.940Z,15.42
2022-09-14T04:11:37.519Z,15.12
2022-09-14T04:14:23.660Z,16.06
2022-09-14T04:17:09.327Z,16.13
2022-09-14T04:19:55.324Z,16.03
2022-09-14T04:22:41.569Z,15.61
2022-09-14T04:25:27.547Z,16.04
2022-09-14T04:28:20.969Z,16.05
2022-09-14T04:31:07.039Z,16.00
2022-09-14T04:33:55.899Z,16.15
2022-09-14T04:36:42.092Z,15.89
2022-09-14T04:39:27.873Z,16.32
2022-09-14T04:42:14.573Z,16.28
2022-09-14T04:45:00.366Z,16.13
2022-09-14T04:47:46.933Z,15.67
2022-09-14T04:50:33.110Z,16.35
2022-09-14T04:53:21.600Z,16.58
2022-09-14T04:56:09.913Z,16.59
2022-09-14T04:59:01.938Z,16.47
2022-09-14T05:01:49.623Z,16.19
2022-09-14T05:04:35.990Z,16.02
2022-09-14T05:07:21.850Z,16.51
2022-09-14T05:10:08.476Z,16.14
2022-09-14T05:12:54.503Z,15.98
2022-09-14T05:15:42.622Z,15.66
2022-09-14T05:18:28.738Z,16.08
2022-09-14T05:21:17.650Z,16.19
2022-09-14T05:24:08.288Z,16.36
2022-09-14T05:26:59.461Z,16.21
2022-09-14T05:29:46.935Z,16.63
2022-09-14T05:32:33.124Z,16.99
2022-09-14T05:35:19.192Z,17.08
2022-09-14T05:38:05.364Z,17.21
2022-09-14T05:40:55.096Z,16.85
2022-09-14T05:43:42.382Z,17.15
2022-09-14T05:46:28.610Z,17.15
2022-09-14T05:49:14.776Z,17.24
2022-09-14T05:52:00.962Z,17.33
2022-09-14T05:54:47.531Z,16.87
2022-09-14T05:57:33.859Z,16.85
2022-09-14T06:00:21.687Z,17.28
2022-09-14T06:03:08.160Z,17.72
2022-09-14T06:05:57.899Z,17.52
2022-09-14T06:08:44.645Z,17.36
2022-09-14T06:11:33.377Z,17.58
2022-09-14T06:14:20.858Z,17.48
2022-09-14T06:17:06.885Z,17.63
2022-09-14T06:19:53.268Z,17.91
2022-09-14T06:22:39.171Z,17.76
2022-09-14T06:25:25.554Z,17.31
2022-09-14T06:28:11.544Z,18.27
2022-09-14T06:30:58.364Z,18.03
2022-09-14T06:33:45.722Z,18.48
2022-09-14T06:36:32.261Z,18.66
2022-09-14T06:39:18.104Z,18.18
2022-09-14T06:42:04.911Z,17.94
2022-09-14T06:44:50.823Z,18.23
2022-09-14T06:47:37.283Z,17.50
2022-09-14T06:50:23.310Z,18.11
2022-09-14T06:53:09.557Z,18.14
2022-09-14T06:55:59.138Z,17.97
2022-09-14T06:58:45.527Z,18.02
2022-09-14T07:01:31.959Z,18.67
2022-09-14T07:04:18.264Z,18.85
2022-09-14T07:07:04.143Z,18.31
2022-09-14T07:09:50.470Z,18.41
2022-09-14T07:12:36.426Z,18.90
2022-09-14T07:15:22.786Z,18.70
2022-09-14T07:18:08.651Z,18.72
2022-09-14T07:20:55.475Z,18.72
2022-09-14T07:23:43.692Z,19.01
2022-09-14T07:26:32.307Z,19.10
2022-09-14T07:29:19.325Z,19.25
2022-09-14T07:32:05.925Z,18.94
2022-09-14T07:34:52.303Z,19.00
2022-09-14T07:37:38.594Z,18.92
2022-09-14T07:40:25.252Z,18.93
2022-09-14T07:43:12.356Z,18.86
2022-09-14T07:46:02.087Z,19.44
2022-09-14T07:48:49.307Z,19.15
2022-09-14T07:51:36.802Z,19.23
2022-09-14T07:54:23.098Z,19.36
2022-09-14T07:57:09.702Z,19.03
2022-09-14T07:59:58.512Z,18.83
2022-09-14T08:02:44.738Z,18.93
2022-09-14T08:05:31.337Z,18.80
2022-09-14T08:08:17.130Z,18.74
2022-09-14T08:11:07.781Z,19.06
2022-09-14T08:13:55.373Z,19.16
2022-09-14T08:16:41.735Z,19.26
2022-09-14T08:19:27.922Z,19.22
2022-09-14T08:22:13.657Z,19.08
2022-09-14T08:24:59.589Z,19.41
2022-09-14T08:27:45.471Z,19.60
2022-09-14T08:30:31.254Z,19.47
2022-09-14T08:33:17.122Z,19.78
2022-09-14T08:36:03.643Z,19.81
2022-09-14T08:38:49.722Z,19.76
2022-09-14T08:41:38.400Z,20.03
2022-09-14T08:44:30.696Z,20.34
2022-09-14T08:47:21.994Z,20.30
2022-09-14T08:50:11.410Z,20.24
2022-09-14T08:52:59.646Z,20.54
2022-09-14T08:55:49.629Z,20.46
2022-09-14T08:58:56.473Z,20.62
2022-09-14T09:02:03.268Z,21.33
2022-09-14T09:04:54.082Z,20.99
2022-09-14T09:07:56.374Z,21.00
2022-09-14T09:10:42.529Z,21.23
2022-09-14T09:13:31.703Z,20.99
2022-09-14T09:16:21.261Z,21.05
2022-09-14T09:19:13.043Z,21.61
2022-09-14T09:22:00.065Z,21.07
2022-09-14T09:24:50.457Z,21.70
2022-09-14T09:27:36.504Z,21.96
2022-09-14T09:30:22.520Z,21.70
2022-09-14T09:33:13.629Z,21.63
2022-09-14T09:36:00.136Z,22.02
2022-09-14T09:38:46.575Z,22.02
2022-09-14T09:41:37.052Z,22.68
2022-09-14T09:44:23.582Z,19.77
2022-09-14T09:47:09.189Z,21.42
2022-09-14T09:50:01.099Z,20.89
2022-09-14T09:53:03.254Z,22.13
2022-09-14T09:55:52.363Z,22.77
2022-09-14T09:58:38.611Z,22.97
2022-09-14T10:01:29.106Z,23.02
2022-09-14T10:04:20.091Z,23.08
2022-09-14T10:07:06.877Z,22.10
2022-09-14T10:10:00.163Z,21.29
2022-09-14T10:12:47.229Z,22.23
2022-09-14T10:15:34.976Z,22.84
2022-09-14T10:18:20.907Z,22.52
2022-09-14T10:21:08.148Z,22.99
2022-09-14T10:24:12.853Z,23.33
2022-09-14T10:26:58.671Z,23.28
2022-09-14T10:29:44.540Z,23.09
2022-09-14T10:32:32.694Z,23.53
2022-09-14T10:35:19.902Z,23.32
2022-09-14T10:38:06.631Z,23.57
2022-09-14T10:40:55.048Z,23.54
2022-09-14T10:43:51.435Z,23.68
2022-09-14T10:46:45.940Z,23.97
2022-09-14T10:49:37.972Z,23.69
2022-09-14T10:52:33.377Z,24.13
2022-09-14T10:55:35.315Z,24.30
2022-09-14T10:58:36.500Z,23.44
2022-09-14T11:01:22.738Z,23.90
2022-09-14T11:04:29.221Z,24.11
2022-09-14T11:07:18.731Z,24.12
2022-09-14T11:10:08.573Z,23.85
2022-09-14T11:12:57.793Z,24.10
2022-09-14T11:16:02.613Z,23.46
2022-09-14T11:18:50.142Z,23.18
2022-09-14T11:21:50.370Z,24.22
2022-09-14T11:24:36.104Z,24.31
2022-09-14T11:27:29.543Z,24.33
2022-09-14T11:30:19.486Z,24.26
2022-09-14T11:33:11.961Z,24.02
2022-09-14T11:35:59.661Z,24.09
2022-09-14T11:39:21.152Z,24.54
2022-09-14T11:42:08.259Z,24.27
2022-09-14T11:45:05.815Z,24.35
2022-09-14T11:47:57.250Z,24.22
2022-09-14T11:50:43.220Z,24.38
2022-09-14T11:53:29.250Z,24.90
2022-09-14T11:56:26.892Z,24.75
2022-09-14T11:59:32.963Z,24.28
2022-09-14T12:02:24.893Z,24.69
2022-09-14T12:05:11.097Z,25.03
2022-09-14T12:08:01.880Z,24.87
2022-09-14T12:11:09.501Z,24.67
2022-09-14T12:14:30.410Z,24.59
2022-09-14T12:17:38.859Z,24.77
2022-09-14T12:20:38.563Z,25.64
2022-09-14T12:23:37.220Z,24.36
2022-09-14T12:26:23.163Z,23.27
2022-09-14T12:29:31.760Z,24.46
2022-09-14T12:32:41.397Z,24.76
2022-09-14T12:35:40.031Z,25.63
2022-09-14T12:38:31.900Z,26.22
2022-09-14T12:41:17.900Z,25.82
2022-09-14T12:44:05.356Z,26.18
2022-09-14T12:46:51.654Z,26.35
2022-09-14T12:49:38.305Z,26.42
2022-09-14T12:52:38.489Z,26.21
2022-09-14T12:55:36.897Z,26.65
2022-09-14T12:58:26.782Z,25.62
2022-09-14T13:01:27.836Z,26.00
2022-09-14T13:04:25.160Z,26.52
2022-09-14T13:07:19.609Z,26.99
2022-09-14T13:10:06.849Z,25.45
2022-09-14T13:12:52.983Z,25.57
2022-09-14T13:15:59.149Z,26.23
2022-09-14T13:18:45.591Z,25.75
2022-09-14T13:21:32.121Z,24.77
2022-09-14T13:24:38.838Z,24.22
2022-09-14T13:27:35.339Z,24.62
2022-09-14T13:30:22.116Z,25.96
2022-09-14T13:33:17.147Z,26.16
2022-09-14T13:36:04.205Z,25.42
2022-09-14T13:38:51.378Z,26.28
2022-09-14T13:41:42.954Z,25.75
2022-09-14T13:44:35.274Z,25.18
2022-09-14T13:47:24.337Z,25.85
2022-09-14T13:50:12.963Z,25.97
2022-09-14T13:53:04.148Z,25.78
2022-09-14T13:55:50.691Z,25.21
2022-09-14T13:58:37.202Z,25.47
2022-09-14T14:01:26.144Z,26.03
2022-09-14T14:04:39.144Z,25.35
2022-09-14T14:07:30.954Z,24.99
2022-09-14T14:10:32.859Z,25.25
2022-09-14T14:13:30.057Z,25.46
2022-09-14T14:16:22.367Z,26.80
2022-09-14T14:19:29.178Z,27.31
2022-09-14T14:22:30.682Z,25.97
2022-09-14T14:25:25.066Z,27.48
2022-09-14T14:28:16.134Z,27.40
2022-09-14T14:31:08.825Z,26.59
2022-09-14T14:33:56.116Z,25.64
2022-09-14T14:36:42.142Z,24.84
2022-09-14T14:39:32.591Z,25.28
2022-09-14T14:42:18.506Z,26.43
2022-09-14T14:45:05.238Z,26.99
2022-09-14T14:47:51.170Z,25.52
2022-09-14T14:50:38.559Z,26.53
2022-09-14T14:53:25.249Z,26.24
2022-09-14T14:56:12.085Z,26.91
2022-09-14T15:02:42.636Z,26.91
2022-09-14T15:05:31.048Z,27.12
2022-09-14T15:08:17.710Z,26.90
2022-09-14T15:11:03.893Z,26.94
2022-09-14T15:13:49.996Z,26.16
2022-09-14T15:16:36.114Z,26.54
2022-09-14T15:19:21.778Z,26.15
2022-09-14T15:22:09.086Z,25.73
2022-09-14T15:24:54.581Z,27.05
2022-09-14T15:27:41.034Z,27.16
2022-09-14T15:30:27.871Z,27.40
2022-09-14T15:33:15.217Z,27.73
2022-09-14T15:36:01.246Z,28.00
2022-09-14T15:38:48.640Z,27.81
2022-09-14T15:41:34.704Z,27.29
2022-09-14T15:44:20.691Z,27.59
2022-09-14T15:47:06.950Z,27.29
2022-09-14T15:49:53.298Z,27.24
2022-09-14T15:52:39.584Z,27.48
2022-09-14T15:55:25.485Z,27.64
2022-09-14T15:58:11.553Z,27.22
2022-09-14T16:00:57.697Z,26.55
2022-09-14T16:03:44.158Z,26.67
2022-09-14T16:06:30.569Z,26.88
2022-09-14T16:09:17.931Z,26.30
2022-09-14T16:12:04.094Z,26.73
2022-09-14T16:14:50.637Z,27.70
2022-09-14T16:17:36.428Z,27.06
2022-09-14T16:20:22.867Z,27.48
2022-09-14T16:23:09.161Z,28.16
2022-09-14T16:25:55.354Z,26.42
2022-09-14T16:28:41.974Z,27.36
2022-09-14T16:31:31.022Z,27.74
2022-09-14T16:34:24.214Z,27.85
2022-09-14T16:37:10.766Z,27.31
2022-09-14T16:39:56.670Z,27.63
2022-09-14T16:42:42.948Z,27.08
2022-09-14T16:45:29.046Z,26.97
2022-09-14T16:48:15.421Z,27.04
2022-09-14T16:51:04.694Z,26.84
2022-09-14T16:53:51.762Z,26.82
2022-09-14T16:56:37.877Z,26.56
2022-09-14T16:59:24.318Z,26.67
2022-09-14T17:02:10.963Z,26.67
2022-09-14T17:04:57.986Z,26.50
2022-09-14T17:07:44.029Z,25.98
2022-09-14T17:10:33.043Z,25.77
2022-09-14T17:13:19.065Z,25.25
2022-09-14T17:16:07.615Z,25.12
2022-09-14T17:18:55.861Z,25.03
2022-09-14T17:21:43.184Z,24.76
2022-09-14T17:24:28.967Z,25.21
2022-09-14T17:27:20.007Z,24.62
2022-09-14T17:30:06.446Z,24.77
2022-09-14T17:32:52.494Z,24.96
2022-09-14T17:35:40.579Z,24.87
2022-09-14T17:38:28.439Z,24.37
2022-09-14T17:41:17.069Z,23.95
2022-09-14T17:44:09.954Z,23.56
2022-09-14T17:46:56.095Z,23.84
2022-09-14T17:49:42.402Z,23.84
2022-09-14T17:52:28.490Z,24.09
2022-09-14T17:55:18.091Z,23.50
2022-09-14T17:58:04.192Z,23.47
2022-09-14T18:00:51.429Z,23.79
2022-09-14T18:03:38.521Z,23.65
2022-09-14T18:06:26.545Z,23.44
2022-09-14T18:09:13.891Z,23.18
2022-09-14T18:12:00.307Z,23.25
2022-09-14T18:14:48.155Z,22.78
2022-09-14T18:17:34.155Z,22.40
2022-09-14T18:20:20.318Z,22.18
2022-09-14T18:23:07.287Z,22.44
2022-09-14T18:25:53.482Z,22.39
2022-09-14T18:28:39.593Z,22.36
2022-09-14T18:31:26.604Z,22.30
2022-09-14T18:34:13.344Z,22.58
2022-09-14T18:36:59.731Z,22.57
2022-09-14T18:39:45.526Z,22.62
2022-09-14T18:42:32.831Z,22.67
2022-09-14T18:45:18.693Z,21.94
2022-09-14T18:48:05.904Z,22.38
2022-09-14T18:50:51.788Z,22.51
2022-09-14T18:53:38.426Z,22.11
2022-09-14T18:56:25.032Z,22.09
2022-09-14T18:59:12.325Z,21.91
2022-09-14T19:01:58.468Z,21.32
2022-09-14T19:04:45.149Z,20.75
2022-09-14T19:07:36.466Z,19.40
2022-09-14T19:10:23.547Z,20.39
2022-09-14T19:13:09.476Z,20.92
2022-09-14T19:15:56.697Z,21.16
2022-09-14T19:18:42.791Z,21.63
2022-09-14T19:21:30.771Z,21.90
2022-09-14T19:24:17.278Z,21.68
2022-09-14T19:27:03.959Z,21.72
2022-09-14T19:29:49.676Z,21.81
2022-09-14T19:32:35.984Z,21.31
2022-09-14T19:35:23.483Z,21.27
2022-09-14T19:38:09.985Z,21.39
2022-09-14T19:40:55.873Z,21.45
2022-09-14T19:43:42.275Z,21.13
2022-09-14T19:46:29.071Z,20.88
2022-09-14T19:49:18.490Z,20.08
2022-09-14T19:52:04.361Z,19.37
2022-09-14T19:54:50.179Z,19.40
2022-09-14T19:57:37.589Z,19.94
2022-09-14T20:00:23.772Z,20.71
2022-09-14T20:03:10.201Z,20.73
2022-09-14T20:06:02.721Z,20.12
2022-09-14T20:08:53.370Z,19.21
2022-09-14T20:11:39.529Z,20.59
2022-09-14T20:14:26.608Z,20.70
2022-09-14T20:17:12.730Z,20.80
2022-09-14T20:19:59.012Z,21.24
2022-09-14T20:22:45.002Z,20.81
2022-09-14T20:25:31.727Z,20.38
2022-09-14T20:28:17.812Z,20.46
2022-09-14T20:31:04.795Z,20.89
2022-09-14T20:33:51.093Z,20.76
2022-09-14T20:36:37.324Z,20.89
2022-09-14T20:39:23.600Z,20.77
2022-09-14T20:42:09.789Z,20.87
2022-09-14T20:44:55.733Z,20.97
2022-09-14T20:47:43.099Z,21.01
2022-09-14T20:50:29.378Z,20.77
2022-09-14T20:53:15.523Z,20.81
2022-09-14T20:56:05.443Z,20.69
2022-09-14T21:02:06.727Z,19.97
2022-09-14T21:04:52.874Z,20.13
2022-09-14T21:08:01.628Z,20.70
2022-09-14T21:10:47.693Z,20.69
2022-09-14T21:13:33.824Z,20.44
2022-09-14T21:16:22.386Z,20.40
2022-09-14T21:19:09.753Z,20.94
2022-09-14T21:21:55.921Z,20.51
2022-09-14T21:24:41.642Z,20.46
2022-09-14T21:27:27.944Z,21.22
2022-09-14T21:30:13.721Z,20.92
2022-09-14T21:33:00.370Z,20.99
2022-09-14T21:35:47.409Z,21.20
2022-09-14T21:38:36.524Z,20.84
2022-09-14T21:41:23.397Z,20.78
2022-09-14T21:44:09.827Z,20.09
2022-09-14T21:46:55.804Z,20.46
2022-09-14T21:49:42.167Z,19.63
2022-09-14T21:52:27.942Z,19.95
2022-09-14T21:55:14.428Z,20.99
2022-09-14T21:58:00.314Z,21.14
2022-09-14T22:00:46.509Z,21.32
2022-09-14T22:03:32.936Z,20.97
2022-09-14T22:06:19.747Z,20.96
2022-09-14T22:09:05.760Z,21.06
2022-09-14T22:11:51.774Z,21.02
2022-09-14T22:14:37.982Z,20.96
2022-09-14T22:17:23.742Z,21.20
2022-09-14T22:20:10.254Z,21.54
2022-09-14T22:22:56.010Z,21.48
2022-09-14T22:25:42.205Z,20.86
2022-09-14T22:28:28.107Z,20.85
2022-09-14T22:31:14.736Z,20.87
2022-09-14T22:34:00.673Z,20.83
2022-09-14T22:36:47.226Z,20.94
2022-09-14T22:39:33.245Z,21.16
2022-09-14T22:42:19.740Z,21.20
2022-09-14T22:45:06.069Z,21.15
2022-09-14T22:47:52.378Z,21.12
2022-09-14T22:50:38.355Z,21.11
2022-09-14T22:53:25.234Z,20.62
2022-09-14T22:56:13.721Z,20.79
2022-09-14T22:59:00.558Z,20.80
2022-09-14T23:01:46.780Z,20.28
2022-09-14T23:04:33.600Z,20.58
2022-09-14T23:07:20.149Z,20.56
2022-09-14T23:10:06.609Z,19.51
2022-09-14T23:12:52.156Z,19.90
2022-09-14T23:15:38.651Z,19.99
2022-09-14T23:18:24.492Z,19.88
2022-09-14T23:21:10.821Z,19.69
2022-09-14T23:23:58.002Z,19.89
2022-09-14T23:26:44.121Z,20.15
2022-09-14T23:29:30.276Z,19.25
2022-09-14T23:32:16.721Z,19.32
2022-09-14T23:35:02.570Z,19.59
2022-09-14T23:37:48.941Z,19.89
2022-09-14T23:40:34.868Z,20.00
2022-09-14T23:43:21.126Z,19.84
2022-09-14T23:46:07.054Z,20.13
2022-09-14T23:48:53.403Z,19.36
2022-09-14T23:51:39.594Z,19.56
2022-09-14T23:54:25.610Z,20.18
2022-09-14T23:57:11.444Z,20.24
2022-09-14T23:59:58.555Z,20.62
